Time;durP1;ratioP1;P1;durP2;ratioP2;P2;SDS_P1;SDS_P2;PMS_P1;PMS_P2;Temp;Humidity;BMP_temperature;BMP_pressure;BME280_temperature;BME280_humidity;BME280_pressure;Samples;Min_cycle;Max_cycle;Signal;HPM_P1;HPM_P2
2023/10/24 00:01:10;;;;;;;2.65;1.65;;;17.60;61.00;;;;;;5113525;28;20192;-60
2023/10/24 00:03:37;;;;;;;4.13;1.70;;;17.70;61.20;;;;;;5113523;28;20216;-63
2023/10/24 00:06:04;;;;;;;2.92;1.83;;;17.60;61.00;;;;;;5113062;28;20602;-60
2023/10/24 00:08:32;;;;;;;2.83;1.70;;;17.60;61.10;;;;;;5113546;28;20216;-62
2023/10/24 00:11:02;;;;;;;3.55;1.67;;;17.60;61.10;;;;;;5113226;28;20197;-63
2023/10/24 00:13:30;;;;;;;3.80;1.80;;;17.70;61.20;;;;;;5112499;28;20319;-62
2023/10/24 00:15:59;;;;;;;4.65;1.95;;;17.60;61.10;;;;;;5112914;28;20189;-63
2023/10/24 00:18:27;;;;;;;2.78;1.80;;;17.70;61.30;;;;;;5113156;28;20270;-62
2023/10/24 00:24:21;;;;;;;6.28;1.70;;;17.60;61.20;;;;;;5113161;28;20207;-61
2023/10/24 00:26:48;;;;;;;4.03;1.95;;;17.60;61.10;;;;;;5112697;28;20200;-61
2023/10/24 00:29:15;;;;;;;2.78;1.60;;;17.60;61.20;;;;;;5113202;28;20398;-61
2023/10/24 00:31:43;;;;;;;2.75;1.90;;;17.60;61.20;;;;;;5113216;28;20230;-62
2023/10/24 00:34:12;;;;;;;2.08;1.40;;;17.60;61.20;;;;;;5112288;28;20229;-63
2023/10/24 00:36:40;;;;;;;2.97;1.65;;;17.60;61.20;;;;;;5113178;28;20197;-60
2023/10/24 00:39:08;;;;;;;2.08;1.52;;;17.60;61.20;;;;;;5112751;28;20217;-62
2023/10/24 00:41:35;;;;;;;3.45;1.85;;;17.60;61.20;;;;;;5112243;28;20752;-58
2023/10/24 00:44:02;;;;;;;2.90;1.67;;;17.60;61.20;;;;;;5112677;28;20702;-61
2023/10/24 00:46:30;;;;;;;2.95;1.30;;;17.60;61.20;;;;;;5112550;28;20560;-62
2023/10/24 00:48:59;;;;;;;3.60;1.75;;;17.60;61.20;;;;;;5112326;28;20217;-61
2023/10/24 00:51:26;;;;;;;2.85;1.60;;;17.60;61.20;;;;;;5112404;28;20362;-61
2023/10/24 00:53:55;;;;;;;3.28;1.58;;;17.60;61.20;;;;;;5112668;28;20229;-61
2023/10/24 00:56:23;;;;;;;5.65;1.80;;;17.60;61.20;;;;;;5112330;28;20186;-62
2023/10/24 00:58:52;;;;;;;2.17;1.42;;;17.60;61.20;;;;;;5112527;28;20757;-60
2023/10/24 01:01:19;;;;;;;2.80;1.58;;;17.60;61.20;;;;;;5112985;28;20189;-62
2023/10/24 01:03:47;;;;;;;4.03;1.95;;;17.60;61.20;;;;;;5112270;28;20266;-64
2023/10/24 01:06:17;;;;;;;2.13;1.25;;;17.60;61.30;;;;;;5112759;28;20699;-61
2023/10/24 01:08:44;;;;;;;4.70;1.45;;;17.60;62.10;;;;;;5112588;28;20220;-63
2023/10/24 01:11:12;;;;;;;2.08;1.55;;;17.60;61.30;;;;;;5111971;28;20283;-62
2023/10/24 01:13:39;;;;;;;2.28;1.40;;;17.60;61.30;;;;;;5112465;28;20233;-61
2023/10/24 01:16:06;;;;;;;3.45;1.58;;;17.60;61.30;;;;;;5112481;28;20186;-63
2023/10/24 01:18:33;;;;;;;2.30;1.50;;;17.60;61.30;;;;;;5112160;28;20217;-60
2023/10/24 01:21:00;;;;;;;4.78;1.45;;;17.60;61.30;;;;;;5112582;28;20185;-63
2023/10/24 01:23:31;;;;;;;3.25;1.70;;;17.60;61.30;;;;;;5112411;28;20244;-64
2023/10/24 01:25:58;;;;;;;2.30;1.50;;;17.60;61.30;;;;;;5112415;28;20196;-63
2023/10/24 01:28:27;;;;;;;4.50;1.88;;;17.60;61.30;;;;;;5112408;28;20631;-62
2023/10/24 01:30:54;;;;;;;2.58;1.48;;;17.60;61.30;;;;;;5112650;28;20193;-61
2023/10/24 01:33:22;;;;;;;1.98;1.38;;;17.60;61.30;;;;;;5115262;28;20228;-62
2023/10/24 01:35:50;;;;;;;3.72;1.38;;;17.60;61.30;;;;;;5116243;28;20185;-61
2023/10/24 01:38:17;;;;;;;3.47;1.77;;;17.60;61.30;;;;;;5116505;28;20217;-59
2023/10/24 01:40:45;;;;;;;3.25;1.40;;;17.60;61.30;;;;;;5115836;28;20251;-62
2023/10/24 01:43:12;;;;;;;4.35;1.60;;;17.60;61.30;;;;;;5116174;28;20217;-62
2023/10/24 01:45:39;;;;;;;3.45;1.98;;;17.60;61.30;;;;;;5115737;28;20182;-62
2023/10/24 01:48:06;;;;;;;2.17;1.35;;;17.60;61.40;;;;;;5115619;28;20220;-63
2023/10/24 01:50:34;;;;;;;3.95;1.63;;;17.60;61.30;;;;;;5115681;28;20278;-61
2023/10/24 01:53:01;;;;;;;5.97;1.30;;;17.50;61.20;;;;;;5115954;28;20189;-61
2023/10/24 01:55:28;;;;;;;3.33;1.35;;;17.60;61.30;;;;;;5115564;28;20197;-63
2023/10/24 01:57:56;;;;;;;2.90;1.50;;;17.50;61.30;;;;;;5115901;28;20238;-62
2023/10/24 02:00:24;;;;;;;3.75;1.50;;;17.50;61.20;;;;;;5115789;28;20185;-61
2023/10/24 02:02:53;;;;;;;3.00;1.30;;;17.50;61.30;;;;;;5115486;28;20254;-61
2023/10/24 02:05:20;;;;;;;3.38;1.33;;;17.50;61.20;;;;;;5115271;28;20223;-61
2023/10/24 02:07:48;;;;;;;3.10;1.63;;;17.50;61.20;;;;;;5115597;28;20185;-63
2023/10/24 02:10:15;;;;;;;2.38;1.42;;;17.50;62.10;;;;;;5114931;28;20220;-62
2023/10/24 02:12:42;;;;;;;3.03;1.30;;;17.60;61.30;;;;;;5115581;28;20189;-61
2023/10/24 02:15:14;;;;;;;3.47;1.40;;;17.50;61.30;;;;;;5115422;28;20217;-62
2023/10/24 02:17:41;;;;;;;5.07;1.50;;;17.50;61.20;;;;;;5115046;28;20284;-62
2023/10/24 02:20:09;;;;;;;5.63;1.45;;;17.60;61.30;;;;;;5115530;28;20210;-63
2023/10/24 02:22:37;;;;;;;4.07;1.30;;;17.50;61.20;;;;;;5115370;28;20276;-63
2023/10/24 02:25:04;;;;;;;2.33;1.20;;;17.50;61.20;;;;;;5114798;28;20209;-62
2023/10/24 02:27:32;;;;;;;2.38;1.70;;;17.50;61.20;;;;;;5114919;28;20757;-62
2023/10/24 02:29:59;;;;;;;3.58;1.30;;;17.50;61.30;;;;;;5115272;28;20217;-62
2023/10/24 02:32:27;;;;;;;2.83;1.50;;;17.50;61.30;;;;;;5114866;28;20369;-63
2023/10/24 02:34:54;;;;;;;2.28;1.40;;;17.50;61.20;;;;;;5114942;28;20237;-61
2023/10/24 02:37:21;;;;;;;2.53;1.27;;;17.50;61.20;;;;;;5114946;28;20197;-64
2023/10/24 02:39:49;;;;;;;2.38;1.40;;;17.50;61.30;;;;;;5114640;28;20282;-61
2023/10/24 02:42:16;;;;;;;2.28;1.30;;;17.60;61.30;;;;;;5114654;28;20355;-62
2023/10/24 02:44:52;;;;;;;3.03;1.42;;;17.50;62.00;;;;;;5115190;28;20213;-63
2023/10/24 02:47:19;;;;;;;2.10;1.40;;;17.50;61.20;;;;;;5114242;28;20192;-62
2023/10/24 02:49:47;;;;;;;2.47;1.25;;;17.50;61.20;;;;;;5112855;28;20767;-62
2023/10/24 02:52:14;;;;;;;2.60;1.20;;;17.50;61.20;;;;;;5114184;28;20189;-62
2023/10/24 02:54:41;;;;;;;2.33;1.40;;;17.50;61.20;;;;;;5114320;28;20236;-62
2023/10/24 02:57:09;;;;;;;2.90;1.27;;;17.50;61.30;;;;;;5114389;28;20189;-60
2023/10/24 02:59:36;;;;;;;1.85;1.20;;;17.50;61.20;;;;;;5114716;28;20212;-61
2023/10/24 03:02:04;;;;;;;2.90;1.15;;;17.50;61.20;;;;;;5114265;28;20272;-61
2023/10/24 03:04:31;;;;;;;2.70;1.20;;;17.50;61.20;;;;;;5114609;28;20221;-62
2023/10/24 03:06:59;;;;;;;5.28;1.30;;;17.50;61.20;;;;;;5114450;28;20275;-61
2023/10/24 03:09:26;;;;;;;3.28;1.40;;;17.50;61.20;;;;;;5113863;28;20304;-61
2023/10/24 03:11:53;;;;;;;2.95;1.40;;;17.50;61.20;;;;;;5114349;28;20189;-63
2023/10/24 03:14:20;;;;;;;3.25;1.30;;;17.50;61.20;;;;;;5114296;28;20243;-61
2023/10/24 03:16:48;;;;;;;3.22;1.25;;;17.50;61.20;;;;;;5113570;28;20182;-62
2023/10/24 03:19:16;;;;;;;2.72;1.17;;;17.50;61.20;;;;;;5114649;28;20213;-63
2023/10/24 03:21:43;;;;;;;3.08;1.10;;;17.50;61.20;;;;;;5114215;28;20268;-63
2023/10/24 03:24:11;;;;;;;2.42;1.00;;;17.50;61.20;;;;;;5114022;28;20217;-61
2023/10/24 03:26:39;;;;;;;1.83;1.05;;;17.50;61.20;;;;;;5114048;28;20217;-62
2023/10/24 03:29:06;;;;;;;3.63;1.10;;;17.50;61.20;;;;;;5113826;28;20224;-59
2023/10/24 03:31:33;;;;;;;2.80;1.27;;;17.50;61.20;;;;;;5113347;28;20284;-62
2023/10/24 03:34:00;;;;;;;2.83;1.35;;;17.50;61.20;;;;;;5113451;28;20726;-62
2023/10/24 03:36:27;;;;;;;3.20;1.38;;;17.40;61.10;;;;;;5113668;28;20197;-63
2023/10/24 03:38:54;;;;;;;3.25;1.42;;;17.50;61.20;;;;;;5113484;28;20216;-60
2023/10/24 03:41:23;;;;;;;2.58;1.13;;;17.50;61.10;;;;;;5113680;28;20276;-61
2023/10/24 03:43:51;;;;;;;1.45;1.10;;;17.50;61.10;;;;;;5113847;28;20292;-61
2023/10/24 03:46:19;;;;;;;1.65;1.20;;;17.50;61.10;;;;;;5112964;28;20562;-63
2023/10/24 03:48:46;;;;;;;3.20;1.30;;;17.50;61.10;;;;;;5113580;28;20299;-62
2023/10/24 03:51:13;;;;;;;1.50;0.98;;;17.50;61.10;;;;;;5113590;28;20636;-58
2023/10/24 03:53:40;;;;;;;3.13;1.20;;;17.50;61.50;;;;;;5112765;28;20348;-63
2023/10/24 03:56:07;;;;;;;2.58;1.27;;;17.50;61.10;;;;;;5113150;28;20318;-60
2023/10/24 03:58:35;;;;;;;2.22;1.10;;;17.40;61.00;;;;;;5113517;28;20217;-60
2023/10/24 04:01:06;;;;;;;2.80;1.08;;;17.40;61.10;;;;;;5112862;28;20189;-59
2023/10/24 04:03:34;;;;;;;3.45;1.20;;;17.50;61.10;;;;;;5113024;28;20258;-61
2023/10/24 04:06:02;;;;;;;4.60;1.20;;;17.40;61.00;;;;;;5113216;28;20185;-62
2023/10/24 04:08:29;;;;;;;2.05;0.90;;;17.50;61.10;;;;;;5112654;28;20698;-63
2023/10/24 04:10:56;;;;;;;2.25;1.20;;;17.40;61.00;;;;;;5113388;28;20220;-62
2023/10/24 04:13:23;;;;;;;2.38;1.17;;;17.40;61.00;;;;;;5113005;28;20300;-63
2023/10/24 04:15:58;;;;;;;2.92;1.33;;;17.40;61.00;;;;;;5112719;28;20566;-63
2023/10/24 04:18:25;;;;;;;1.55;1.20;;;17.40;61.00;;;;;;5113137;28;20244;-61
2023/10/24 04:20:52;;;;;;;3.03;1.13;;;17.40;61.00;;;;;;5113423;28;20189;-62
2023/10/24 04:23:19;;;;;;;2.42;1.10;;;17.40;61.00;;;;;;5112370;28;20687;-61
2023/10/24 04:25:46;;;;;;;2.05;1.20;;;17.40;61.00;;;;;;5112699;28;20276;-63
2023/10/24 04:28:13;;;;;;;5.00;1.25;;;17.40;61.00;;;;;;5112981;28;20186;-61
2023/10/24 04:30:41;;;;;;;3.50;1.13;;;17.40;61.00;;;;;;5112837;28;20185;-62
2023/10/24 04:33:10;;;;;;;4.68;1.35;;;17.40;61.40;;;;;;5112874;28;20272;-58
2023/10/24 04:35:47;;;;;;;6.47;1.17;;;17.40;60.90;;;;;;5112845;28;20302;-63
2023/10/24 04:38:14;;;;;;;5.25;1.50;;;17.40;61.00;;;;;;5112421;28;20219;-61
2023/10/24 04:40:41;;;;;;;2.45;1.30;;;17.40;61.00;;;;;;5113196;28;20193;-57
2023/10/24 04:43:09;;;;;;;1.85;1.08;;;17.40;60.90;;;;;;5112807;28;20185;-62
2023/10/24 04:45:37;;;;;;;5.72;1.35;;;17.40;61.00;;;;;;5112450;28;20276;-58
2023/10/24 04:48:05;;;;;;;2.97;1.35;;;17.40;61.00;;;;;;5112554;28;20280;-60
2023/10/24 04:50:38;;;;;;;1.90;1.30;;;17.40;60.90;;;;;;5112825;28;20435;-61
2023/10/24 04:53:05;;;;;;;3.30;1.27;;;17.40;60.90;;;;;;5112244;28;20185;-63
2023/10/24 04:55:32;;;;;;;5.22;1.30;;;17.40;60.90;;;;;;5112621;28;20277;-63
2023/10/24 04:57:59;;;;;;;2.15;1.00;;;17.40;60.90;;;;;;5112785;28;20273;-61
2023/10/24 05:00:27;;;;;;;3.30;1.17;;;17.40;60.90;;;;;;5112026;28;20276;-62
2023/10/24 05:02:54;;;;;;;2.80;1.10;;;17.40;60.90;;;;;;5112554;28;20268;-63
2023/10/24 05:05:21;;;;;;;3.80;1.33;;;17.40;60.90;;;;;;5112467;28;20296;-60
2023/10/24 05:07:49;;;;;;;3.47;1.60;;;17.40;60.80;;;;;;5115758;28;20193;-62
2023/10/24 05:10:17;;;;;;;2.28;1.35;;;17.40;60.80;;;;;;5116747;28;20244;-63
2023/10/24 05:12:44;;;;;;;4.80;1.35;;;17.40;60.70;;;;;;5116720;28;20225;-60
2023/10/24 05:15:11;;;;;;;3.25;1.20;;;17.40;60.70;;;;;;5116196;28;20232;-62
2023/10/24 05:17:38;;;;;;;2.65;1.20;;;17.40;60.70;;;;;;5116637;28;20185;-62
2023/10/24 05:20:08;;;;;;;3.08;1.10;;;17.40;60.70;;;;;;5116264;28;20303;-61
2023/10/24 05:22:35;;;;;;;2.58;1.23;;;17.40;60.70;;;;;;5116132;28;20186;-60
2023/10/24 05:25:03;;;;;;;1.80;1.10;;;17.40;60.70;;;;;;5116589;28;20209;-61
2023/10/24 05:27:32;;;;;;;2.92;1.10;;;17.40;60.70;;;;;;5116388;28;20280;-63
2023/10/24 05:29:59;;;;;;;3.80;1.20;;;17.40;60.70;;;;;;5116096;28;20217;-60
2023/10/24 05:32:26;;;;;;;4.03;1.50;;;17.40;60.70;;;;;;5116041;28;20272;-61
2023/10/24 05:34:53;;;;;;;2.42;1.17;;;17.40;60.70;;;;;;5115951;28;20248;-61
2023/10/24 05:37:20;;;;;;;3.33;1.48;;;17.40;60.60;;;;;;5116108;28;20266;-62
2023/10/24 05:39:47;;;;;;;3.20;1.40;;;17.40;60.60;;;;;;5116358;28;20217;-63
2023/10/24 05:45:04;;;;;;;4.05;1.33;;;17.40;60.60;;;;;;5070914;28;20361;-62
2023/10/24 05:47:31;;;;;;;1.98;1.00;;;17.30;60.50;;;;;;5116048;28;20193;-62
2023/10/24 05:49:58;;;;;;;2.30;1.20;;;17.30;60.50;;;;;;5116111;28;20217;-62
2023/10/24 05:52:25;;;;;;;1.88;1.10;;;17.30;60.50;;;;;;5115343;28;20673;-61
2023/10/24 05:54:53;;;;;;;2.85;1.42;;;17.30;60.40;;;;;;5115371;28;20324;-63
2023/10/24 05:57:23;;;;;;;2.30;0.90;;;17.30;60.50;;;;;;5115855;28;20185;-63
2023/10/24 05:59:50;;;;;;;2.75;1.17;;;17.30;60.40;;;;;;5115287;28;20228;-60
2023/10/24 06:02:17;;;;;;;2.92;1.10;;;17.30;60.40;;;;;;5115426;28;20189;-62
2023/10/24 06:04:44;;;;;;;3.40;1.30;;;17.30;60.40;;;;;;5115879;28;20213;-61
2023/10/24 06:07:13;;;;;;;2.78;1.17;;;17.30;60.40;;;;;;5115272;28;20197;-59
2023/10/24 06:09:40;;;;;;;4.07;1.25;;;17.30;60.40;;;;;;5115677;28;20224;-61
2023/10/24 06:12:08;;;;;;;2.33;1.08;;;17.30;60.40;;;;;;5115594;28;20181;-61
2023/10/24 06:14:37;;;;;;;4.20;1.30;;;17.30;60.40;;;;;;5114925;28;20251;-63
2023/10/24 06:17:04;;;;;;;2.90;1.27;;;17.30;60.40;;;;;;5115012;28;20705;-63
2023/10/24 06:19:33;;;;;;;2.35;1.08;;;17.30;60.30;;;;;;5115582;28;20300;-62
2023/10/24 06:22:00;;;;;;;2.30;1.23;;;17.30;60.30;;;;;;5115173;28;20190;-63
2023/10/24 06:24:27;;;;;;;2.38;1.02;;;17.30;60.30;;;;;;5115437;28;20217;-61
2023/10/24 06:26:54;;;;;;;2.20;1.10;;;17.30;60.30;;;;;;5115251;28;20201;-60
2023/10/24 06:29:21;;;;;;;2.40;1.10;;;17.30;60.30;;;;;;5114710;28;20628;-62
2023/10/24 06:31:50;;;;;;;3.60;1.30;;;17.30;60.30;;;;;;5115123;28;20211;-60
2023/10/24 06:34:17;;;;;;;3.28;1.60;;;17.30;60.30;;;;;;5114813;28;20233;-62
2023/10/24 06:36:43;;;;;;;1.65;0.93;;;17.30;60.30;;;;;;5114701;28;20315;-63
2023/10/24 06:39:11;;;;;;;3.33;1.08;;;17.30;60.30;;;;;;5115143;28;20300;-61
2023/10/24 06:41:38;;;;;;;4.47;1.27;;;17.30;60.30;;;;;;5114736;28;20189;-63
2023/10/24 06:44:05;;;;;;;2.80;0.98;;;17.30;60.20;;;;;;5115047;28;20213;-62
2023/10/24 06:46:32;;;;;;;2.90;1.30;;;17.30;60.30;;;;;;5115020;28;20272;-63
2023/10/24 06:49:01;;;;;;;2.45;1.15;;;17.30;61.10;;;;;;5114679;28;20201;-62
2023/10/24 06:51:28;;;;;;;6.03;1.35;;;17.30;61.10;;;;;;5114572;28;20276;-60
2023/10/24 06:53:56;;;;;;;3.38;1.35;;;17.30;60.20;;;;;;5107691;28;20909;-62
2023/10/24 06:56:23;;;;;;;1.77;1.20;;;17.30;60.20;;;;;;5104474;28;20216;-62
2023/10/24 06:58:50;;;;;;;2.72;1.20;;;17.30;60.40;;;;;;5111519;28;20305;-62
2023/10/24 07:01:17;;;;;;;5.18;1.35;;;17.30;61.30;;;;;;5096658;28;21525;-60
2023/10/24 07:03:47;;;;;;;2.95;1.67;;;17.30;60.60;;;;;;5109078;28;20221;-60
2023/10/24 07:06:16;;;;;;;5.10;1.50;;;17.40;60.70;;;;;;5100910;28;20208;-62
2023/10/24 07:08:51;;;;;;;8.63;1.40;;;17.40;60.60;;;;;;5093332;28;20210;-61
2023/10/24 07:11:18;;;;;;;6.45;1.50;;;17.40;60.70;;;;;;5092346;28;20710;-62
2023/10/24 07:13:46;;;;;;;3.85;1.20;;;17.50;60.70;;;;;;5112963;28;20232;-62
2023/10/24 07:16:18;;;;;;;5.53;1.60;;;17.50;60.50;;;;;;5113128;28;20309;-63
2023/10/24 07:18:45;;;;;;;2.55;0.90;;;17.50;60.50;;;;;;5103756;28;20209;-62
2023/10/24 07:21:15;;;;;;;5.50;1.55;;;17.50;60.40;;;;;;5092370;28;20278;-61
2023/10/24 07:23:43;;;;;;;18.58;2.47;;;17.50;60.30;;;;;;5103623;28;20221;-62
2023/10/24 07:26:24;;;;;;;3.30;1.23;;;17.50;60.40;;;;;;5111481;28;20189;-60
2023/10/24 07:28:51;;;;;;;3.63;1.30;;;17.60;60.70;;;;;;5107747;28;20311;-59
2023/10/24 07:31:18;;;;;;;2.17;1.23;;;17.60;60.70;;;;;;5103765;28;20667;-60
2023/10/24 07:33:46;;;;;;;4.13;1.35;;;17.60;60.60;;;;;;5109969;28;20233;-62
2023/10/24 07:36:13;;;;;;;4.75;1.27;;;17.70;61.10;;;;;;5112385;28;20343;-62
2023/10/24 07:38:40;;;;;;;3.08;1.25;;;17.70;60.90;;;;;;5111139;28;20193;-60
2023/10/24 07:41:09;;;;;;;7.28;1.38;;;17.70;60.70;;;;;;5112393;28;20247;-63
2023/10/24 07:43:36;;;;;;;1.95;1.30;;;17.70;60.90;;;;;;5112220;28;20185;-60
2023/10/24 07:46:05;;;;;;;4.00;1.40;;;17.70;60.90;;;;;;5108322;28;20272;-62
2023/10/24 07:48:32;;;;;;;5.38;1.55;;;17.80;61.10;;;;;;5105235;28;20634;-57
2023/10/24 07:53:41;;;;;;;3.65;1.33;;;17.80;61.10;;;;;;5102425;28;20205;-63
2023/10/24 07:56:10;;;;;;;3.28;1.30;;;17.90;61.10;;;;;;5096937;28;20217;-61
2023/10/24 07:58:59;;;;;;;4.05;1.45;;;17.90;60.90;;;;;;5108862;28;20193;-62
2023/10/24 08:01:26;;;;;;;5.07;1.48;;;17.90;60.80;;;;;;5100082;28;20202;-61
2023/10/24 08:03:54;;;;;;;4.22;1.30;;;17.90;60.70;;;;;;5112328;28;20689;-60
2023/10/24 08:06:21;;;;;;;4.32;1.55;;;17.90;61.00;;;;;;5106811;28;20228;-60
2023/10/24 08:08:48;;;;;;;3.60;1.63;;;17.90;61.10;;;;;;5092479;28;20201;-61
2023/10/24 08:11:17;;;;;;;4.38;1.38;;;17.90;60.70;;;;;;5092180;28;20214;-63
2023/10/24 08:14:01;;;;;;;6.75;1.70;;;17.90;60.80;;;;;;5090552;28;20182;-62
2023/10/24 08:16:32;;;;;;;4.60;1.60;;;17.90;61.10;;;;;;5097615;28;20316;-62
2023/10/24 08:18:59;;;;;;;10.10;1.65;;;17.90;61.30;;;;;;5103278;28;20210;-63
2023/10/24 08:21:26;;;;;;;6.40;1.77;;;18.00;61.80;;;;;;5091602;28;20278;-61
2023/10/24 08:23:54;;;;;;;8.20;1.83;;;18.00;61.90;;;;;;5102065;28;20451;-60
2023/10/24 08:26:23;;;;;;;8.85;2.28;;;18.00;61.90;;;;;;5111907;28;20285;-60
2023/10/24 08:28:50;;;;;;;8.82;2.03;;;18.00;61.40;;;;;;5105415;28;20269;-61
2023/10/24 08:31:17;;;;;;;6.18;1.60;;;18.00;61.60;;;;;;5105483;28;20193;-60
2023/10/24 08:33:44;;;;;;;5.50;1.83;;;18.00;61.40;;;;;;5087979;28;20668;-59
2023/10/24 08:36:12;;;;;;;6.15;1.45;;;18.00;61.20;;;;;;5081506;28;20283;-61
2023/10/24 08:38:39;;;;;;;4.82;1.50;;;17.90;61.10;;;;;;5083884;28;20251;-59
2023/10/24 08:41:06;;;;;;;3.17;1.48;;;18.00;61.10;;;;;;5087084;28;20186;-59
2023/10/24 08:43:36;;;;;;;6.72;2.03;;;18.00;61.20;;;;;;5110293;28;20303;-61
2023/10/24 08:46:04;;;;;;;6.95;1.65;;;17.90;61.20;;;;;;5103975;28;20228;-58
2023/10/24 08:48:34;;;;;;;4.10;1.40;;;17.90;61.50;;;;;;5100761;28;20562;-63
2023/10/24 08:51:01;;;;;;;1.75;1.27;;;18.00;61.70;;;;;;5096264;28;20217;-62
2023/10/24 08:53:29;;;;;;;5.00;2.10;;;18.00;61.40;;;;;;5100935;28;20247;-61
2023/10/24 08:55:57;;;;;;;9.02;1.65;;;18.00;61.50;;;;;;5106185;28;20322;-62
2023/10/24 08:58:25;;;;;;;4.70;1.67;;;18.00;61.30;;;;;;5104982;28;20193;-55
2023/10/24 09:01:08;;;;;;;4.03;1.60;;;18.00;61.50;;;;;;5092398;28;20301;-63
2023/10/24 09:03:37;;;;;;;6.25;2.30;;;18.00;61.20;;;;;;5102600;28;20201;-60
2023/10/24 09:06:05;;;;;;;3.65;1.67;;;18.00;61.10;;;;;;5103136;28;20213;-64
2023/10/24 09:08:34;;;;;;;4.30;1.77;;;18.00;61.20;;;;;;5093180;28;20546;-63
2023/10/24 09:11:01;;;;;;;6.07;1.60;;;18.00;61.10;;;;;;5089502;28;20218;-62
2023/10/24 09:13:28;;;;;;;9.23;1.75;;;18.00;61.10;;;;;;5090003;28;20241;-62
2023/10/24 09:16:10;;;;;;;3.55;1.70;;;18.10;61.10;;;;;;5087894;28;20225;-63
2023/10/24 09:18:38;;;;;;;5.68;1.65;;;18.10;61.10;;;;;;5089552;28;20602;-61
2023/10/24 09:21:07;;;;;;;3.22;1.63;;;18.10;61.10;;;;;;5107105;28;20282;-63
2023/10/24 09:23:37;;;;;;;3.55;1.50;;;18.10;61.00;;;;;;5110829;28;20304;-63
2023/10/24 09:26:11;;;;;;;7.05;1.35;;;18.10;60.90;;;;;;5102332;28;20209;-62
2023/10/24 09:28:40;;;;;;;2.65;1.30;;;18.10;60.90;;;;;;5109149;28;20201;-63
2023/10/24 09:31:11;;;;;;;5.97;1.95;;;18.10;60.80;;;;;;5108795;28;20240;-61
2023/10/24 09:33:39;;;;;;;6.22;1.70;;;18.10;60.80;;;;;;5111414;28;20229;-61
2023/10/24 09:36:11;;;;;;;5.18;1.40;;;18.10;60.70;;;;;;5111630;28;20240;-62
2023/10/24 09:41:19;;;;;;;6.53;1.38;;;18.10;60.70;;;;;;5107836;28;20303;-60
2023/10/24 09:43:49;;;;;;;3.72;1.50;;;18.20;60.90;;;;;;5108926;28;20189;-61
2023/10/24 09:46:20;;;;;;;4.80;1.52;;;18.10;60.70;;;;;;5110895;28;20220;-61
2023/10/24 09:48:48;;;;;;;4.60;1.80;;;18.20;60.80;;;;;;5109601;28;20193;-61
2023/10/24 09:51:18;;;;;;;3.65;1.40;;;18.20;60.70;;;;;;5108702;28;20222;-62
2023/10/24 09:53:46;;;;;;;6.22;1.67;;;18.20;60.60;;;;;;5112319;28;20288;-63
2023/10/24 09:56:15;;;;;;;12.20;2.10;;;18.20;60.60;;;;;;5101203;28;20611;-61
2023/10/24 09:58:43;;;;;;;5.78;1.50;;;18.20;61.30;;;;;;5094892;28;20190;-64
2023/10/24 10:01:11;;;;;;;3.92;1.58;;;18.20;60.40;;;;;;5092804;28;20261;-60
2023/10/24 10:03:40;;;;;;;4.80;1.67;;;18.20;60.30;;;;;;5111201;28;20204;-63
2023/10/24 10:06:22;;;;;;;3.53;1.35;;;18.30;60.40;;;;;;5110202;28;20225;-63
2023/10/24 10:08:51;;;;;;;4.05;1.23;;;18.30;60.40;;;;;;5114260;28;20204;-61
2023/10/24 10:11:19;;;;;;;2.45;1.40;;;18.30;60.40;;;;;;5113009;28;20648;-60
2023/10/24 10:13:53;;;;;;;14.65;1.48;;;18.30;60.40;;;;;;5115111;28;20205;-60
2023/10/24 10:16:39;;;;;;;3.53;1.25;;;18.20;60.20;;;;;;5100009;28;20226;-61
2023/10/24 10:19:30;;;;;;;3.03;1.52;;;18.30;60.10;;;;;;5091011;28;20337;-63
2023/10/24 10:22:12;;;;;;;3.22;1.20;;;18.30;60.10;;;;;;5107003;28;20193;-61
2023/10/24 10:25:08;;;;;;;3.05;1.30;;;18.30;60.00;;;;;;5112260;28;20316;-60
2023/10/24 10:27:45;;;;;;;3.05;1.30;;;18.30;60.00;;;;;;5093881;28;20201;-62
2023/10/24 10:30:23;;;;;;;4.60;1.42;;;18.30;60.00;;;;;;5093981;28;20225;-62
2023/10/24 10:33:05;;;;;;;3.05;1.30;;;18.30;60.00;;;;;;5093880;28;20189;-61
2023/10/24 10:35:56;;;;;;;1.98;1.33;;;18.20;59.80;;;;;;5093510;28;20257;-63
2023/10/24 10:38:50;;;;;;;4.38;1.45;;;18.30;59.90;;;;;;5093952;28;20223;-64
2023/10/24 10:41:40;;;;;;;3.47;1.27;;;18.30;59.80;;;;;;5056802;28;20414;-59
2023/10/24 10:44:37;;;;;;;7.10;1.30;;;18.20;59.70;;;;;;5093325;28;20194;-61
2023/10/24 10:47:06;;;;;;;2.78;1.58;;;18.30;59.80;;;;;;5105510;28;20208;-60
2023/10/24 10:49:47;;;;;;;2.40;1.27;;;18.30;59.90;;;;;;5108263;28;20284;-62
2023/10/24 10:52:28;;;;;;;4.05;1.48;;;18.30;59.80;;;;;;5092777;28;20327;-61
2023/10/24 10:55:06;;;;;;;3.35;1.48;;;18.30;59.80;;;;;;5113567;28;20213;-62
2023/10/24 10:57:49;;;;;;;4.05;1.30;;;18.30;59.70;;;;;;5113772;28;20244;-63
2023/10/24 11:00:19;;;;;;;2.38;1.40;;;18.30;59.70;;;;;;5113607;28;20217;-62
2023/10/24 11:03:08;;;;;;;9.20;1.95;;;18.30;59.70;;;;;;5113872;28;20185;-60
2023/10/24 11:05:51;;;;;;;3.78;1.30;;;18.30;59.60;;;;;;5112913;28;20467;-63
2023/10/24 11:08:23;;;;;;;3.03;1.25;;;18.30;59.60;;;;;;5113398;28;20185;-63
2023/10/24 11:10:57;;;;;;;5.85;1.88;;;18.30;59.60;;;;;;5112480;28;20299;-62
2023/10/24 11:13:36;;;;;;;3.63;1.40;;;18.30;59.60;;;;;;5112880;28;20226;-62
2023/10/24 11:16:04;;;;;;;3.45;1.42;;;18.30;59.70;;;;;;5112454;28;20217;-62
2023/10/24 11:18:32;;;;;;;2.88;1.50;;;18.30;59.60;;;;;;5108124;28;20196;-63
2023/10/24 11:20:59;;;;;;;5.28;1.70;;;18.30;59.70;;;;;;5113273;28;20582;-60
2023/10/24 11:23:43;;;;;;;1.95;1.20;;;18.30;59.60;;;;;;5112797;28;20272;-63
2023/10/24 11:26:11;;;;;;;4.82;1.27;;;18.30;59.50;;;;;;5112380;28;20274;-62
2023/10/24 11:28:38;;;;;;;2.75;1.40;;;18.30;59.50;;;;;;5104787;28;20281;-62
2023/10/24 11:31:22;;;;;;;3.03;1.40;;;18.30;59.60;;;;;;5101182;28;20218;-62
2023/10/24 11:33:52;;;;;;;2.55;1.30;;;18.30;60.20;;;;;;5111193;28;20229;-63
2023/10/24 11:36:19;;;;;;;4.93;1.33;;;18.30;59.50;;;;;;5112455;28;20229;-63
2023/10/24 11:38:48;;;;;;;2.97;1.50;;;18.30;59.50;;;;;;5112255;28;20217;-62
2023/10/24 11:41:15;;;;;;;4.28;1.58;;;18.30;59.40;;;;;;5110864;28;20209;-62
2023/10/24 11:43:45;;;;;;;3.15;1.63;;;18.30;59.50;;;;;;5099395;28;20194;-60
2023/10/24 11:46:12;;;;;;;2.45;1.17;;;18.30;59.50;;;;;;5089304;28;20627;-60
2023/10/24 11:48:56;;;;;;;;;;;;;;;;;;;;;
2023/10/24 11:51:30;;;;;;;5.18;1.50;;;18.40;59.70;;;;;;5100273;28;20232;-62
2023/10/24 11:54:09;;;;;;;3.25;1.50;;;18.40;59.70;;;;;;5089312;28;20243;-63
2023/10/24 11:56:36;;;;;;;3.85;1.50;;;18.40;59.70;;;;;;5090440;28;20229;-61
2023/10/24 11:59:19;;;;;;;3.65;1.30;;;18.30;59.60;;;;;;5088980;28;20263;-63
2023/10/24 12:01:47;;;;;;;3.70;1.52;;;18.40;59.60;;;;;;5085446;28;20222;-62
2023/10/24 12:04:15;;;;;;;3.13;1.30;;;18.40;59.70;;;;;;5090717;28;20189;-63
2023/10/24 12:06:46;;;;;;;11.93;2.13;;;18.40;59.70;;;;;;5089219;28;21009;-60
2023/10/24 12:09:18;;;;;;;2.70;1.40;;;18.40;59.70;;;;;;5097315;28;20201;-59
2023/10/24 12:11:47;;;;;;;4.50;1.40;;;18.40;59.60;;;;;;5090268;28;20315;-61
2023/10/24 12:14:16;;;;;;;7.15;2.38;;;18.40;59.50;;;;;;5006470;28;20297;-62
2023/10/24 12:16:47;;;;;;;2.75;1.33;;;18.40;59.40;;;;;;5094653;28;20221;-62
2023/10/24 12:19:16;;;;;;;3.80;1.50;;;18.40;59.40;;;;;;5093330;28;20201;-62
2023/10/24 12:21:45;;;;;;;4.03;1.60;;;18.40;59.50;;;;;;5039335;28;20224;-61
2023/10/24 12:24:13;;;;;;;2.72;1.20;;;18.40;59.40;;;;;;5089639;28;21102;-61
2023/10/24 12:26:42;;;;;;;3.28;1.40;;;18.40;59.50;;;;;;5070590;28;20225;-58
2023/10/24 12:29:10;;;;;;;7.53;1.90;;;18.40;59.60;;;;;;5100631;28;20257;-60
2023/10/24 12:34:23;;;;;;;3.15;1.27;;;18.40;59.70;;;;;;5065405;28;20378;-60
2023/10/24 12:36:54;;;;;;;8.40;1.70;;;18.40;59.70;;;;;;5053505;28;20238;-61
2023/10/24 12:39:22;;;;;;;4.38;1.30;;;18.40;59.70;;;;;;5053953;28;20202;-60
2023/10/24 12:41:51;;;;;;;4.53;1.30;;;18.50;59.80;;;;;;5052429;28;20304;-61
2023/10/24 12:44:21;;;;;;;1.88;1.10;;;18.50;59.80;;;;;;5047110;28;20820;-61
2023/10/24 12:46:49;;;;;;;3.83;1.42;;;18.50;59.80;;;;;;5047213;28;20237;-58
2023/10/24 12:49:19;;;;;;;4.25;1.17;;;18.50;59.80;;;;;;5048331;28;20210;-59
2023/10/24 12:51:46;;;;;;;5.72;1.30;;;18.50;59.80;;;;;;5057913;28;20230;-62
2023/10/24 12:54:15;;;;;;;2.63;1.05;;;18.50;59.70;;;;;;5048304;28;20689;-60
2023/10/24 12:56:42;;;;;;;2.85;1.10;;;18.50;59.70;;;;;;5049779;28;20276;-58
2023/10/24 12:59:11;;;;;;;3.60;1.40;;;18.50;59.70;;;;;;5052924;28;20281;-61
2023/10/24 13:01:46;;;;;;;2.85;1.02;;;18.50;59.70;;;;;;5052881;28;20223;-62
2023/10/24 13:06:59;;;;;;;1.73;1.05;;;18.50;59.70;;;;;;5047518;28;20245;-60
2023/10/24 13:09:37;;;;;;;4.00;1.40;;;18.40;59.70;;;;;;5053816;28;20206;-61
2023/10/24 13:12:05;;;;;;;2.92;1.42;;;18.40;59.60;;;;;;5049618;28;20227;-61
2023/10/24 13:14:35;;;;;;;5.47;1.80;;;18.40;59.60;;;;;;5054385;28;20280;-62
2023/10/24 13:17:03;;;;;;;3.35;1.90;;;18.40;59.60;;;;;;5054004;28;20227;-61